createdAt,value
2018-06-20T00:00:06.473Z,17.78
2018-06-20T00:01:09.253Z,17.79
2018-06-20T00:02:12.132Z,17.81
2018-06-20T00:03:15.224Z,17.81
2018-06-20T00:04:17.999Z,17.82
2018-06-20T00:05:20.920Z,17.80
2018-06-20T00:06:24.454Z,17.80
2018-06-20T00:07:27.413Z,17.79
2018-06-20T00:08:30.637Z,17.77
2018-06-20T00:09:33.696Z,17.75
2018-06-20T00:10:36.493Z,17.71
2018-06-20T00:11:40.464Z,17.67
2018-06-20T00:12:43.284Z,17.69
2018-06-20T00:13:48.086Z,17.70
2018-06-20T00:14:50.878Z,17.76
2018-06-20T00:15:53.962Z,17.79
2018-06-20T00:16:56.774Z,17.78
2018-06-20T00:17:59.582Z,17.74
2018-06-20T00:19:02.386Z,17.69
2018-06-20T00:20:05.187Z,17.66
2018-06-20T00:21:07.986Z,17.65
2018-06-20T00:22:11.069Z,17.66
2018-06-20T00:23:14.418Z,17.67
2018-06-20T00:24:17.284Z,17.71
2018-06-20T00:25:20.126Z,17.70
2018-06-20T00:26:23.332Z,17.73
2018-06-20T00:27:26.313Z,17.71
2018-06-20T00:28:29.467Z,17.68
2018-06-20T00:29:33.391Z,17.68
2018-06-20T00:30:36.156Z,17.69
2018-06-20T00:31:38.937Z,17.72
2018-06-20T00:32:41.728Z,17.75
2018-06-20T00:33:44.523Z,17.74
2018-06-20T00:34:48.235Z,17.73
2018-06-20T00:35:51.028Z,17.74
2018-06-20T00:36:53.813Z,17.76
2018-06-20T00:37:56.591Z,17.74
2018-06-20T00:39:00.352Z,17.73
2018-06-20T00:40:03.144Z,17.70
2018-06-20T00:41:06.375Z,17.68
2018-06-20T00:42:09.189Z,17.66
2018-06-20T00:43:12.000Z,17.64
2018-06-20T00:44:14.812Z,17.64
2018-06-20T00:45:18.905Z,17.62
2018-06-20T00:46:22.320Z,17.66
2018-06-20T00:47:25.505Z,17.70
2018-06-20T00:48:28.323Z,17.76
2018-06-20T00:49:31.101Z,17.77
2018-06-20T00:50:34.969Z,17.72
2018-06-20T00:51:37.735Z,17.69
2018-06-20T00:52:40.521Z,17.64
2018-06-20T00:53:43.968Z,17.64
2018-06-20T00:54:46.785Z,17.63
2018-06-20T00:55:49.613Z,17.65
2018-06-20T00:56:52.933Z,17.69
2018-06-20T00:57:56.334Z,17.71
2018-06-20T00:58:59.086Z,17.71
2018-06-20T01:00:02.585Z,17.67
2018-06-20T01:01:05.698Z,17.62
2018-06-20T01:02:11.569Z,17.60
2018-06-20T01:03:14.353Z,17.61
2018-06-20T01:04:17.271Z,17.63
2018-06-20T01:05:20.066Z,17.64
2018-06-20T01:06:23.670Z,17.64
2018-06-20T01:07:27.190Z,17.65
2018-06-20T01:08:31.556Z,17.64
2018-06-20T01:09:34.541Z,17.68
2018-06-20T01:10:37.310Z,17.68
2018-06-20T01:11:40.138Z,17.65
2018-06-20T01:12:43.368Z,17.62
2018-06-20T01:13:46.185Z,17.61
2018-06-20T01:14:49.027Z,17.60
2018-06-20T01:15:51.830Z,17.63
2018-06-20T01:16:55.426Z,17.65
2018-06-20T01:17:58.198Z,17.62
2018-06-20T01:19:01.282Z,17.62
2018-06-20T01:20:04.128Z,17.57
2018-06-20T01:21:06.919Z,17.55
2018-06-20T01:22:10.323Z,17.53
2018-06-20T01:23:16.635Z,17.55
2018-06-20T01:24:20.834Z,17.55
2018-06-20T01:25:24.133Z,17.49
2018-06-20T01:26:26.932Z,17.47
2018-06-20T01:27:29.995Z,17.46
2018-06-20T01:28:32.814Z,17.45
2018-06-20T01:29:35.594Z,17.47
2018-06-20T01:30:38.367Z,17.52
2018-06-20T01:31:42.205Z,17.54
2018-06-20T01:32:45.069Z,17.58
2018-06-20T01:33:55.652Z,17.60
2018-06-20T01:34:58.477Z,17.61
2018-06-20T01:36:01.297Z,17.57
2018-06-20T01:37:04.143Z,17.55
2018-06-20T01:38:07.255Z,17.56
2018-06-20T01:39:11.084Z,17.55
2018-06-20T01:40:13.918Z,17.56
2018-06-20T01:41:16.707Z,17.55
2018-06-20T01:42:19.664Z,17.54
2018-06-20T01:43:24.935Z,17.57
2018-06-20T01:44:28.066Z,17.56
2018-06-20T01:45:31.842Z,17.54
2018-06-20T01:46:35.326Z,17.54
2018-06-20T01:47:38.090Z,17.49
2018-06-20T01:48:41.927Z,17.49
2018-06-20T01:49:45.157Z,17.48
2018-06-20T01:50:51.242Z,17.48
2018-06-20T01:51:57.585Z,17.51
2018-06-20T01:53:02.616Z,17.53
2018-06-20T01:54:05.450Z,17.54
2018-06-20T01:55:09.462Z,17.52
2018-06-20T01:56:12.295Z,17.45
2018-06-20T01:57:15.383Z,17.38
2018-06-20T01:58:18.211Z,17.43
2018-06-20T01:59:21.047Z,17.47
2018-06-20T02:00:25.471Z,17.49
2018-06-20T02:01:28.319Z,17.50
2018-06-20T02:02:31.811Z,17.50
2018-06-20T02:03:34.890Z,17.49
2018-06-20T02:04:37.701Z,17.50
2018-06-20T02:05:41.520Z,17.46
2018-06-20T02:06:45.360Z,17.39
2018-06-20T02:07:50.374Z,17.38
2018-06-20T02:08:57.283Z,17.32
2018-06-20T02:10:00.393Z,17.27
2018-06-20T02:11:03.236Z,17.25
2018-06-20T02:12:07.242Z,17.33
2018-06-20T02:13:11.058Z,17.34
2018-06-20T02:14:13.855Z,17.33
2018-06-20T02:15:17.733Z,17.36
2018-06-20T02:16:20.827Z,17.40
2018-06-20T02:17:23.636Z,17.42
2018-06-20T02:18:26.735Z,17.38
2018-06-20T02:19:29.551Z,17.36
2018-06-20T02:20:32.358Z,17.37
2018-06-20T02:21:35.690Z,17.41
2018-06-20T02:22:39.326Z,17.42
2018-06-20T02:23:42.131Z,17.45
2018-06-20T02:24:46.295Z,17.43
2018-06-20T02:25:49.088Z,17.40
2018-06-20T02:26:51.935Z,17.36
2018-06-20T02:27:55.543Z,17.36
2018-06-20T02:28:58.634Z,17.32
2018-06-20T02:30:02.817Z,17.33
2018-06-20T02:31:05.639Z,17.24
2018-06-20T02:32:09.402Z,17.23
2018-06-20T02:33:12.239Z,17.26
2018-06-20T02:35:48.741Z,17.29
2018-06-20T02:36:52.415Z,17.31
2018-06-20T02:37:55.276Z,17.31
2018-06-20T02:38:58.399Z,17.34
2018-06-20T02:40:01.433Z,17.35
2018-06-20T02:41:04.589Z,17.33
2018-06-20T02:42:07.380Z,17.33
2018-06-20T02:43:12.545Z,17.31
2018-06-20T02:44:16.909Z,17.31
2018-06-20T02:45:20.942Z,17.33
2018-06-20T02:46:25.620Z,17.33
2018-06-20T02:47:34.340Z,17.34
2018-06-20T02:48:43.209Z,17.36
2018-06-20T02:49:47.449Z,17.35
2018-06-20T02:50:50.259Z,17.33
2018-06-20T02:51:54.069Z,17.31
2018-06-20T02:52:58.710Z,17.33
2018-06-20T02:54:01.823Z,17.28
2018-06-20T02:55:04.632Z,17.26
2018-06-20T02:56:07.751Z,17.25
2018-06-20T02:57:12.064Z,17.29
2018-06-20T02:58:16.186Z,17.30
2018-06-20T02:59:19.195Z,17.31
2018-06-20T03:00:22.498Z,17.34
2018-06-20T03:01:25.771Z,17.37
2018-06-20T03:02:28.760Z,17.36
2018-06-20T03:03:32.438Z,17.34
2018-06-20T03:04:36.038Z,17.33
2018-06-20T03:05:39.462Z,17.30
2018-06-20T03:06:43.095Z,17.27
2018-06-20T03:07:47.684Z,17.26
2018-06-20T03:08:55.292Z,17.29
2018-06-20T03:09:58.697Z,17.32
2018-06-20T03:11:01.560Z,17.30
2018-06-20T03:12:04.367Z,17.29
2018-06-20T03:13:10.456Z,17.28
2018-06-20T03:14:13.920Z,17.28
2018-06-20T03:15:17.408Z,17.28
2018-06-20T03:16:21.514Z,17.30
2018-06-20T03:17:24.451Z,17.28
2018-06-20T03:18:27.309Z,17.27
2018-06-20T03:19:31.254Z,17.25
2018-06-20T03:20:34.442Z,17.24
2018-06-20T03:21:37.313Z,17.25
2018-06-20T03:22:40.271Z,17.26
2018-06-20T03:23:43.610Z,17.23
2018-06-20T03:24:46.442Z,17.24
2018-06-20T03:25:50.363Z,17.25
2018-06-20T03:26:54.003Z,17.25
2018-06-20T03:27:57.396Z,17.27
2018-06-20T03:29:00.209Z,17.28
2018-06-20T03:30:03.879Z,17.23
2018-06-20T03:31:06.695Z,17.22
2018-06-20T03:32:09.832Z,17.21
2018-06-20T03:33:12.756Z,17.18
2018-06-20T03:34:16.143Z,17.20
2018-06-20T03:35:18.955Z,17.20
2018-06-20T03:36:21.771Z,17.18
2018-06-20T03:37:24.641Z,17.14
2018-06-20T03:38:28.354Z,17.09
2018-06-20T03:39:31.197Z,17.11
2018-06-20T03:40:34.703Z,17.12
2018-06-20T03:41:37.503Z,17.15
2018-06-20T03:42:41.415Z,17.15
2018-06-20T03:43:44.290Z,17.18
2018-06-20T03:44:47.088Z,17.22
2018-06-20T03:45:49.876Z,17.24
2018-06-20T03:46:52.695Z,17.25
2018-06-20T03:47:55.488Z,17.27
2018-06-20T03:48:58.954Z,17.24
2018-06-20T03:50:06.491Z,17.23
2018-06-20T03:51:09.265Z,17.22
2018-06-20T03:52:16.527Z,17.22
2018-06-20T03:53:19.307Z,17.22
2018-06-20T03:54:22.125Z,17.20
2018-06-20T03:55:24.919Z,17.24
2018-06-20T03:56:27.754Z,17.25
2018-06-20T03:57:30.588Z,17.30
2018-06-20T03:58:33.431Z,17.29
2018-06-20T03:59:36.403Z,17.27
2018-06-20T04:00:42.866Z,17.25
2018-06-20T04:01:46.064Z,17.27
2018-06-20T04:02:50.716Z,17.25
2018-06-20T04:03:54.745Z,17.25
2018-06-20T04:04:57.823Z,17.23
2018-06-20T04:06:00.635Z,17.25
2018-06-20T04:07:03.492Z,17.26
2018-06-20T04:08:06.789Z,17.28
2018-06-20T04:09:12.021Z,17.30
2018-06-20T04:10:14.886Z,17.29
2018-06-20T04:11:17.965Z,17.30
2018-06-20T04:12:21.969Z,17.31
2018-06-20T04:13:24.758Z,17.30
2018-06-20T04:15:41.235Z,17.35
2018-06-20T04:16:44.035Z,17.36
2018-06-20T04:17:46.907Z,17.33
2018-06-20T04:18:49.749Z,17.31
2018-06-20T04:21:01.841Z,17.26
2018-06-20T04:22:05.070Z,17.31
2018-06-20T04:23:08.008Z,17.32
2018-06-20T04:24:12.242Z,17.34
2018-06-20T04:25:15.141Z,17.34
2018-06-20T04:26:17.958Z,17.38
2018-06-20T04:27:20.805Z,17.37
2018-06-20T04:28:24.161Z,17.40
2018-06-20T04:29:26.952Z,17.42
2018-06-20T04:30:30.520Z,17.49
2018-06-20T04:32:42.976Z,17.54
2018-06-20T04:33:45.881Z,17.57
2018-06-20T04:34:50.165Z,17.55
2018-06-20T04:37:08.569Z,17.61
2018-06-20T04:38:12.062Z,17.60
2018-06-20T04:40:33.215Z,17.54
2018-06-20T04:41:36.408Z,17.51
2018-06-20T04:42:39.245Z,17.51
2018-06-20T04:43:43.768Z,17.58
2018-06-20T04:44:48.936Z,17.60
2018-06-20T04:45:53.394Z,17.57
2018-06-20T04:46:59.696Z,17.58
2018-06-20T04:48:07.508Z,17.59
2018-06-20T04:49:19.964Z,17.62
2018-06-20T04:50:28.522Z,17.70
2018-06-20T04:51:38.534Z,17.73
2018-06-20T04:52:42.572Z,17.66
2018-06-20T04:53:46.606Z,17.59
2018-06-20T04:54:50.519Z,17.60
2018-06-20T04:55:54.870Z,17.64
2018-06-20T04:56:57.711Z,17.70
2018-06-20T04:58:01.777Z,17.74
2018-06-20T04:59:07.185Z,17.78
2018-06-20T05:00:11.067Z,17.76
2018-06-20T05:01:14.436Z,17.78
2018-06-20T05:02:17.729Z,17.79
2018-06-20T05:03:21.237Z,17.85
2018-06-20T05:04:25.230Z,17.88
2018-06-20T05:05:29.006Z,17.88
2018-06-20T05:06:32.042Z,17.87
2018-06-20T05:08:45.652Z,17.88
2018-06-20T05:09:48.554Z,17.88
2018-06-20T05:10:52.266Z,17.88
2018-06-20T05:11:55.263Z,17.88
2018-06-20T05:13:00.766Z,17.89
2018-06-20T05:14:03.734Z,17.88
2018-06-20T05:15:14.422Z,17.90
2018-06-20T05:16:17.863Z,17.93
2018-06-20T05:17:22.382Z,17.91
2018-06-20T05:18:26.225Z,17.96
2018-06-20T05:19:30.894Z,18.01
2018-06-20T05:20:43.636Z,18.09
2018-06-20T05:21:47.921Z,18.11
2018-06-20T05:22:50.844Z,18.10
2018-06-20T05:23:54.803Z,18.09
2018-06-20T05:24:57.632Z,18.12
2018-06-20T05:26:00.461Z,18.17
2018-06-20T05:27:03.274Z,18.17
2018-06-20T05:28:06.081Z,18.17
2018-06-20T05:29:09.672Z,18.14
2018-06-20T05:30:14.137Z,18.19
2018-06-20T05:31:17.064Z,18.20
2018-06-20T05:32:20.164Z,18.22
2018-06-20T05:33:25.481Z,18.26
2018-06-20T05:34:28.328Z,18.27
2018-06-20T05:35:31.158Z,18.31
2018-06-20T05:36:35.352Z,18.35
2018-06-20T05:37:38.187Z,18.37
2018-06-20T05:38:41.028Z,18.37
2018-06-20T05:39:44.751Z,18.45
2018-06-20T05:40:48.323Z,18.45
2018-06-20T05:41:51.171Z,18.46
2018-06-20T05:42:54.503Z,18.47
2018-06-20T05:43:57.321Z,18.48
2018-06-20T05:45:00.211Z,18.52
2018-06-20T05:46:03.038Z,18.56
2018-06-20T05:47:10.143Z,18.56
2018-06-20T05:48:12.986Z,18.60
2018-06-20T05:49:16.282Z,18.63
2018-06-20T05:50:19.932Z,18.67
2018-06-20T05:51:22.857Z,18.72
2018-06-20T05:52:25.691Z,18.74
2018-06-20T05:53:28.770Z,18.73
2018-06-20T05:54:31.792Z,18.75
2018-06-20T05:55:35.684Z,18.78
2018-06-20T05:56:38.488Z,18.85
2018-06-20T05:57:41.310Z,18.90
2018-06-20T05:58:49.054Z,18.97
2018-06-20T05:59:51.907Z,19.06
2018-06-20T06:00:54.905Z,19.13
2018-06-20T06:01:58.295Z,19.22
2018-06-20T06:03:01.159Z,19.32
2018-06-20T06:04:04.046Z,19.31
2018-06-20T06:05:08.247Z,19.30
2018-06-20T06:06:20.529Z,19.26
2018-06-20T06:07:23.969Z,19.30
2018-06-20T06:08:27.266Z,19.27
2018-06-20T06:09:31.700Z,19.32
2018-06-20T06:10:36.287Z,19.34
2018-06-20T06:11:41.419Z,19.37
2018-06-20T06:12:44.656Z,19.45
2018-06-20T06:13:47.497Z,19.45
2018-06-20T06:14:55.380Z,19.44
2018-06-20T06:15:58.201Z,19.43
2018-06-20T06:17:01.088Z,19.48
2018-06-20T06:18:04.715Z,19.49
2018-06-20T06:19:08.500Z,19.56
2018-06-20T06:20:13.698Z,19.62
2018-06-20T06:21:18.052Z,19.72
2018-06-20T06:22:20.956Z,19.82
2018-06-20T06:23:23.931Z,19.82
2018-06-20T06:25:57.384Z,19.86
2018-06-20T06:27:01.861Z,20.00
2018-06-20T06:28:05.800Z,20.07
2018-06-20T06:29:09.824Z,20.10
2018-06-20T06:30:12.877Z,20.13
2018-06-20T06:31:15.752Z,20.18
2018-06-20T06:32:19.654Z,20.15
2018-06-20T06:33:22.620Z,20.18
2018-06-20T06:34:25.734Z,20.26
2018-06-20T06:35:30.190Z,20.22
2018-06-20T06:36:33.019Z,20.18
2018-06-20T06:37:35.905Z,20.15
2018-06-20T06:38:38.761Z,20.08
2018-06-20T06:39:42.399Z,20.08
2018-06-20T06:40:47.629Z,20.24
2018-06-20T06:41:51.576Z,20.38
2018-06-20T06:42:56.216Z,20.25
2018-06-20T06:44:00.738Z,20.16
2018-06-20T06:45:04.342Z,20.25
2018-06-20T06:46:09.471Z,20.27
2018-06-20T06:47:12.722Z,20.25
2018-06-20T06:48:17.029Z,20.20
2018-06-20T06:49:20.364Z,20.14
2018-06-20T06:50:23.200Z,20.22
2018-06-20T06:51:27.220Z,20.39
2018-06-20T06:52:30.136Z,20.33
2018-06-20T06:53:34.396Z,20.20
2018-06-20T06:54:37.352Z,20.12
2018-06-20T06:55:40.307Z,20.14
2018-06-20T06:56:43.108Z,20.21
2018-06-20T06:57:48.404Z,20.23
2018-06-20T06:58:52.205Z,20.20
2018-06-20T06:59:57.788Z,20.18
2018-06-20T07:02:27.028Z,20.55
2018-06-20T07:03:31.023Z,20.59
2018-06-20T07:04:34.197Z,20.68
2018-06-20T07:05:37.293Z,20.80
2018-06-20T07:06:41.212Z,21.06
2018-06-20T07:07:44.324Z,21.08
2018-06-20T07:08:47.220Z,21.27
2018-06-20T07:09:50.119Z,21.37
2018-06-20T07:10:53.447Z,21.41
2018-06-20T07:12:00.191Z,21.43
2018-06-20T07:13:03.615Z,21.42
2018-06-20T07:14:07.568Z,21.37
2018-06-20T07:15:10.470Z,21.19
2018-06-20T07:16:13.516Z,21.26
2018-06-20T07:17:16.346Z,21.15
2018-06-20T07:18:22.464Z,20.98
2018-06-20T07:19:29.545Z,20.91
2018-06-20T07:20:33.263Z,21.06
2018-06-20T07:21:36.289Z,21.23
2018-06-20T07:22:39.751Z,21.40
2018-06-20T07:23:42.660Z,21.52
2018-06-20T07:24:45.545Z,21.56
2018-06-20T07:25:50.575Z,21.69
2018-06-20T07:26:54.248Z,21.84
2018-06-20T07:27:58.756Z,21.88
2018-06-20T07:29:01.687Z,22.06
2018-06-20T07:30:06.418Z,22.07
2018-06-20T07:31:09.259Z,21.88
2018-06-20T07:32:12.674Z,21.71
2018-06-20T07:33:16.458Z,21.68
2018-06-20T07:34:21.130Z,21.73
2018-06-20T07:35:24.002Z,21.89
2018-06-20T07:36:28.391Z,21.78
2018-06-20T07:37:32.054Z,21.89
2018-06-20T07:38:37.509Z,21.98
2018-06-20T07:39:40.945Z,22.13
2018-06-20T07:40:43.773Z,21.80
2018-06-20T07:41:48.379Z,21.41
2018-06-20T07:42:52.220Z,21.38
2018-06-20T07:43:54.992Z,21.54
2018-06-20T07:44:58.137Z,21.42
2018-06-20T07:46:01.602Z,21.32
2018-06-20T07:47:05.375Z,21.23
2018-06-20T07:48:08.202Z,21.23
2018-06-20T07:49:11.070Z,21.10
2018-06-20T07:50:14.901Z,21.14
2018-06-20T07:51:18.509Z,21.28
2018-06-20T07:52:21.401Z,21.26
2018-06-20T07:53:24.218Z,21.17
2018-06-20T07:54:30.025Z,21.03
2018-06-20T07:55:33.631Z,21.17
2018-06-20T07:56:36.432Z,20.86
2018-06-20T07:57:39.857Z,20.88
2018-06-20T07:58:47.595Z,21.09
2018-06-20T07:59:55.249Z,21.24
2018-06-20T08:01:02.987Z,21.27
2018-06-20T08:02:10.681Z,21.46
2018-06-20T08:03:18.514Z,21.62
2018-06-20T08:04:26.574Z,21.60
2018-06-20T08:05:34.517Z,21.24
2018-06-20T08:06:42.417Z,21.22
2018-06-20T08:07:50.392Z,21.35
2018-06-20T08:08:58.651Z,21.46
2018-06-20T08:10:06.587Z,21.59
2018-06-20T08:11:15.205Z,21.72
2018-06-20T08:14:24.937Z,21.73
2018-06-20T08:15:33.561Z,21.45
2018-06-20T08:16:41.593Z,21.03
2018-06-20T08:17:50.707Z,21.18
2018-06-20T08:18:59.381Z,21.19
2018-06-20T08:20:03.228Z,21.19
2018-06-20T08:21:07.702Z,21.26
2018-06-20T08:22:11.119Z,21.24
2018-06-20T08:23:15.288Z,20.98
2018-06-20T08:24:18.135Z,21.14
2018-06-20T08:25:21.096Z,21.15
2018-06-20T08:26:24.255Z,21.17
2018-06-20T08:27:27.108Z,21.25
2018-06-20T08:28:31.186Z,21.26
2018-06-20T08:29:34.463Z,21.21
2018-06-20T08:30:38.059Z,21.40
2018-06-20T08:31:42.095Z,21.45
2018-06-20T08:32:46.823Z,21.32
2018-06-20T08:33:49.664Z,21.34
2018-06-20T08:34:53.439Z,21.27
2018-06-20T08:35:57.887Z,21.33
2018-06-20T08:37:01.942Z,21.51
2018-06-20T08:38:04.915Z,21.67
2018-06-20T08:39:08.417Z,21.66
2018-06-20T08:40:12.440Z,21.84
2018-06-20T08:41:15.316Z,21.97
2018-06-20T08:42:18.586Z,21.94
2018-06-20T08:43:21.565Z,21.84
2018-06-20T08:44:24.522Z,22.34
2018-06-20T08:45:27.357Z,22.29
2018-06-20T08:46:30.264Z,22.01
2018-06-20T08:47:33.093Z,22.06
2018-06-20T08:48:36.323Z,22.15
2018-06-20T08:49:39.208Z,22.00
2018-06-20T08:50:42.933Z,21.97
2018-06-20T08:51:45.767Z,21.91
2018-06-20T08:52:50.401Z,21.93
2018-06-20T08:53:57.436Z,22.07
2018-06-20T08:55:01.603Z,22.38
2018-06-20T08:56:04.492Z,22.87
2018-06-20T08:57:08.570Z,22.79
2018-06-20T08:58:11.553Z,22.74
2018-06-20T08:59:14.438Z,22.69
2018-06-20T09:00:21.195Z,22.09
2018-06-20T09:01:24.220Z,21.75
2018-06-20T09:02:27.128Z,21.91
2018-06-20T09:03:31.734Z,21.96
2018-06-20T09:04:40.166Z,22.28
2018-06-20T09:05:47.858Z,22.23
2018-06-20T09:06:57.327Z,22.31
2018-06-20T09:08:04.965Z,22.16
2018-06-20T09:09:12.583Z,21.98
2018-06-20T09:10:20.295Z,22.06
2018-06-20T09:13:32.324Z,22.30
2018-06-20T09:14:40.075Z,22.19
2018-06-20T09:15:48.495Z,22.16
2018-06-20T09:23:15.167Z,22.00
2018-06-20T09:24:18.007Z,22.06
2018-06-20T09:25:20.859Z,22.38
2018-06-20T09:26:25.958Z,22.44
2018-06-20T09:27:29.815Z,22.14
2018-06-20T09:28:32.823Z,21.97
2018-06-20T09:29:36.025Z,22.13
2018-06-20T09:30:39.070Z,22.29
2018-06-20T09:31:41.925Z,22.49
2018-06-20T09:32:44.743Z,22.13
2018-06-20T09:33:47.767Z,21.83
2018-06-20T09:34:50.572Z,21.76
2018-06-20T09:35:53.840Z,21.88
2018-06-20T09:36:56.681Z,21.86
2018-06-20T09:37:59.523Z,21.94
2018-06-20T09:39:02.424Z,21.96
2018-06-20T09:40:05.263Z,21.95
2018-06-20T09:41:08.735Z,21.91
2018-06-20T09:42:13.485Z,21.90
2018-06-20T09:43:20.449Z,21.99
2018-06-20T09:44:23.269Z,21.79
2018-06-20T09:45:26.340Z,21.92
2018-06-20T09:46:29.215Z,22.00
2018-06-20T09:47:32.118Z,21.95
2018-06-20T09:48:35.279Z,22.00
2018-06-20T09:49:38.350Z,21.93
2018-06-20T09:50:46.057Z,21.67
2018-06-20T09:51:51.943Z,21.86
2018-06-20T09:52:54.844Z,22.18
2018-06-20T09:53:58.393Z,22.50
2018-06-20T09:55:02.506Z,22.76
2018-06-20T09:56:06.376Z,23.11
2018-06-20T09:57:09.202Z,23.28
2018-06-20T09:58:12.035Z,23.53
2018-06-20T09:59:19.639Z,23.69
2018-06-20T10:00:28.898Z,23.81
2018-06-20T10:01:36.526Z,23.91
2018-06-20T10:02:44.220Z,24.24
2018-06-20T10:03:53.736Z,24.62
2018-06-20T10:05:01.535Z,24.70
2018-06-20T10:06:09.739Z,23.84
2018-06-20T10:07:15.567Z,23.28
2018-06-20T10:08:23.129Z,23.30
2018-06-20T10:09:31.530Z,23.20
2018-06-20T10:10:39.115Z,22.63
2018-06-20T10:11:46.750Z,22.49
2018-06-20T10:12:55.525Z,22.74
2018-06-20T10:14:00.972Z,22.55
2018-06-20T10:15:04.749Z,22.80
2018-06-20T10:16:07.578Z,22.90
2018-06-20T10:17:11.971Z,22.39
2018-06-20T10:18:15.347Z,22.43
2018-06-20T10:19:18.698Z,22.50
2018-06-20T10:20:29.432Z,22.84
2018-06-20T10:21:32.287Z,23.07
2018-06-20T10:22:35.090Z,23.66
2018-06-20T10:23:37.938Z,24.20
2018-06-20T10:24:40.776Z,24.36
2018-06-20T10:25:43.991Z,24.33
2018-06-20T10:26:46.819Z,23.98
2018-06-20T10:27:49.710Z,24.34
2018-06-20T10:28:52.566Z,24.41
2018-06-20T10:29:55.398Z,24.37
2018-06-20T10:30:58.648Z,24.48
2018-06-20T10:32:02.555Z,23.86
2018-06-20T10:33:05.773Z,23.96
2018-06-20T10:34:08.698Z,24.09
2018-06-20T10:35:11.729Z,24.14
2018-06-20T10:36:16.382Z,24.15
2018-06-20T10:37:19.257Z,23.83
2018-06-20T10:38:23.319Z,23.72
2018-06-20T10:39:26.626Z,23.20
2018-06-20T10:40:29.496Z,22.98
2018-06-20T10:41:39.339Z,23.09
2018-06-20T10:42:42.208Z,23.12
2018-06-20T10:43:46.209Z,23.53
2018-06-20T10:46:03.690Z,23.65
2018-06-20T10:47:11.203Z,24.02
2018-06-20T10:48:17.687Z,24.68
2018-06-20T10:49:21.640Z,24.81
2018-06-20T10:50:24.547Z,24.82
2018-06-20T10:51:28.293Z,24.62
2018-06-20T10:52:31.346Z,24.46
2018-06-20T10:53:34.378Z,24.72
2018-06-20T10:54:37.244Z,25.13
2018-06-20T10:55:41.581Z,24.46
2018-06-20T10:56:49.601Z,24.69
2018-06-20T10:57:57.339Z,24.43
2018-06-20T10:59:05.663Z,24.75
2018-06-20T11:00:14.212Z,24.72
2018-06-20T11:01:21.918Z,24.62
2018-06-20T11:02:29.710Z,24.64
2018-06-20T11:03:37.298Z,24.98
2018-06-20T11:04:45.999Z,24.17
2018-06-20T11:05:53.702Z,23.70
2018-06-20T11:18:51.878Z,24.58
2018-06-20T11:19:56.974Z,24.54
2018-06-20T11:21:00.536Z,24.60
2018-06-20T11:22:05.496Z,25.01
2018-06-20T11:23:10.986Z,25.15
2018-06-20T11:24:15.037Z,25.19
2018-06-20T11:25:17.891Z,24.99
2018-06-20T11:26:20.922Z,25.31
2018-06-20T11:27:23.883Z,25.17
2018-06-20T11:28:27.540Z,24.85
2018-06-20T11:29:30.394Z,24.99
2018-06-20T11:30:34.310Z,25.01
2018-06-20T11:31:37.217Z,24.76
2018-06-20T11:32:40.085Z,25.00
2018-06-20T11:33:45.742Z,25.08
2018-06-20T11:34:48.656Z,25.48
2018-06-20T11:35:52.104Z,25.29
2018-06-20T11:36:55.214Z,24.81
2018-06-20T11:37:58.088Z,24.90
2018-06-20T11:39:04.021Z,25.37
2018-06-20T11:40:07.565Z,24.89
2018-06-20T11:41:10.410Z,24.81
2018-06-20T11:42:14.451Z,24.82
2018-06-20T11:43:17.590Z,24.82
2018-06-20T11:44:20.443Z,25.19
2018-06-20T11:45:23.375Z,25.26
2018-06-20T11:46:31.590Z,24.95
2018-06-20T11:47:42.472Z,24.61
2018-06-20T11:48:46.386Z,24.93
2018-06-20T11:49:49.601Z,25.19
2018-06-20T11:53:06.465Z,25.38
2018-06-20T11:54:12.339Z,25.63
2018-06-20T11:55:19.903Z,25.59
2018-06-20T11:56:24.977Z,25.91
2018-06-20T11:57:28.085Z,26.43
2018-06-20T11:58:36.448Z,26.72
2018-06-20T11:59:44.723Z,26.80
2018-06-20T12:00:52.505Z,26.74
2018-06-20T12:02:00.235Z,26.63
2018-06-20T12:03:08.369Z,26.72
2018-06-20T12:04:19.653Z,25.28
2018-06-20T12:05:27.943Z,25.70
2018-06-20T12:06:35.634Z,26.14
2018-06-20T12:07:43.478Z,26.41
2018-06-20T12:08:51.914Z,26.57
2018-06-20T12:10:00.439Z,25.69
2018-06-20T12:11:09.738Z,24.77
2018-06-20T12:12:17.562Z,24.41
2018-06-20T12:13:26.390Z,24.78
2018-06-20T12:14:34.999Z,25.15
2018-06-20T12:15:43.397Z,25.32
2018-06-20T12:16:48.840Z,25.22
2018-06-20T12:17:56.389Z,25.34
2018-06-20T12:19:04.510Z,25.64
2018-06-20T12:20:13.261Z,26.15
2018-06-20T12:21:21.077Z,26.04
2018-06-20T12:22:28.832Z,25.93
2018-06-20T12:23:37.540Z,26.60
2018-06-20T12:24:45.270Z,26.75
2018-06-20T12:25:54.247Z,26.52
2018-06-20T12:27:01.880Z,26.68
2018-06-20T12:28:09.935Z,26.85
2018-06-20T12:29:17.697Z,26.69
2018-06-20T12:30:26.215Z,26.36
2018-06-20T12:31:35.135Z,26.32
2018-06-20T12:32:43.449Z,26.15
2018-06-20T12:33:51.580Z,26.55
2018-06-20T12:35:00.302Z,26.56
2018-06-20T12:36:08.857Z,26.54
2018-06-20T12:37:21.013Z,25.96
2018-06-20T12:38:28.761Z,25.66
2018-06-20T12:39:30.622Z,26.00
2018-06-20T12:40:39.223Z,26.81
2018-06-20T12:41:47.130Z,27.56
2018-06-20T12:42:58.034Z,27.58
2018-06-20T12:44:06.022Z,26.37
2018-06-20T12:45:12.469Z,26.12
2018-06-20T12:47:23.015Z,26.23
2018-06-20T12:48:27.372Z,26.71
2018-06-20T12:49:36.406Z,27.26
2018-06-20T12:50:39.611Z,27.37
2018-06-20T12:51:43.356Z,26.92
2018-06-20T12:52:46.391Z,26.50
2018-06-20T12:53:50.923Z,25.99
2018-06-20T12:54:53.934Z,26.20
2018-06-20T12:55:57.246Z,26.20
2018-06-20T12:57:03.128Z,25.72
2018-06-20T12:58:08.130Z,26.49
2018-06-20T12:59:12.338Z,26.17
2018-06-20T13:00:15.847Z,26.61
2018-06-20T13:01:21.360Z,26.56
2018-06-20T13:02:25.477Z,26.34
2018-06-20T13:03:33.380Z,25.93
2018-06-20T13:04:36.175Z,26.26
2018-06-20T13:05:40.574Z,26.14
2018-06-20T13:06:43.708Z,26.16
2018-06-20T13:07:48.143Z,26.24
2018-06-20T13:08:52.353Z,26.30
2018-06-20T13:09:56.230Z,26.23
2018-06-20T13:10:59.206Z,26.19
2018-06-20T13:12:02.632Z,26.53
2018-06-20T13:13:05.522Z,27.25
2018-06-20T13:14:09.500Z,26.94
2018-06-20T13:15:14.491Z,27.20
2018-06-20T13:16:17.580Z,27.13
2018-06-20T13:17:22.032Z,26.78
2018-06-20T13:18:26.007Z,26.96
2018-06-20T13:19:29.612Z,27.11
2018-06-20T13:20:32.394Z,26.86
2018-06-20T13:21:35.634Z,26.62
2018-06-20T13:22:39.072Z,26.86
2018-06-20T13:23:42.276Z,27.54
2018-06-20T13:24:46.737Z,27.92
2018-06-20T13:25:50.543Z,27.84
2018-06-20T13:26:53.435Z,27.63
2018-06-20T13:27:57.519Z,27.27
2018-06-20T13:29:02.919Z,27.34
2018-06-20T13:30:12.463Z,27.63
2018-06-20T13:31:20.093Z,27.03
2018-06-20T13:32:28.475Z,26.55
2018-06-20T13:33:38.317Z,27.35
2018-06-20T13:34:48.068Z,28.31
2018-06-20T13:35:56.391Z,28.73
2018-06-20T13:37:04.666Z,28.53
2018-06-20T13:38:14.890Z,28.72
2018-06-20T13:39:22.490Z,28.66
2018-06-20T13:40:31.463Z,27.47
2018-06-20T13:41:39.265Z,27.81
2018-06-20T13:42:47.571Z,27.86
2018-06-20T13:43:55.262Z,27.66
2018-06-20T13:45:02.916Z,27.64
2018-06-20T13:46:12.261Z,27.38
2018-06-20T13:47:21.901Z,27.22
2018-06-20T13:48:30.804Z,27.76
2018-06-20T13:49:35.376Z,27.79
2018-06-20T13:50:38.949Z,28.01
2018-06-20T13:51:41.889Z,27.73
2018-06-20T13:52:45.115Z,27.78
2018-06-20T13:53:47.938Z,28.44
2018-06-20T13:54:51.753Z,28.91
2018-06-20T13:55:56.246Z,28.53
2018-06-20T13:56:59.189Z,28.38
2018-06-20T13:58:02.084Z,28.28
2018-06-20T13:59:05.371Z,27.44
2018-06-20T14:00:09.360Z,27.57
2018-06-20T14:01:13.385Z,28.37
2018-06-20T14:02:16.302Z,28.88
2018-06-20T14:03:19.160Z,28.92
2018-06-20T14:04:21.962Z,28.75
2018-06-20T14:05:26.109Z,28.39
2018-06-20T14:06:28.948Z,28.22
2018-06-20T14:07:32.056Z,27.78
2018-06-20T14:08:34.988Z,28.03
2018-06-20T14:09:37.931Z,28.22
2018-06-20T14:10:41.603Z,28.18
2018-06-20T14:11:45.633Z,28.20
2018-06-20T14:12:50.432Z,28.16
2018-06-20T14:13:53.334Z,28.20
2018-06-20T14:14:56.785Z,28.22
2018-06-20T14:16:00.242Z,28.62
2018-06-20T14:17:04.834Z,29.16
2018-06-20T14:18:08.254Z,28.94
2018-06-20T14:19:13.656Z,27.72
2018-06-20T14:20:21.389Z,27.48
2018-06-20T14:21:29.112Z,26.75
2018-06-20T14:22:33.048Z,26.69
2018-06-20T14:23:35.928Z,26.54
2018-06-20T14:24:39.657Z,26.21
2018-06-20T14:25:42.510Z,27.03
2018-06-20T14:26:49.210Z,27.72